Aparecida do Rio Negro, Brazil
Current Conditions -  °F | °C
As of 12:00 PM on Monday 24 Nov 2014 (Local Time) from SBPN Reporting Station
Broken Clouds Broken Clouds  
Wind Chill: 81°   Ceiling: 10000
Heat Index: 85°   Visibility: 6mi
Dew Point: 73°   Wind: 9mph
Humidity: 79%   Direction: 120°ESE
Pressure: 29.91"   Gusts: NA
Location:  9.95°S, 47.97°W
Report Text: SBPN 241500Z 12008KT 9999 SCT030 BKN100 27/23 Q1013
Loading
Personal Weather Stations






























Interactive Weather Map New forecast layout! Learn more

10-Day Weather Forecast

Advertisements
Track Severe Weather on mobile